# Tabular Observed and Forecast Hydrograph Information
#
# Location: Carson River - Carson City (STWN2)
#
# File Generation Time: 05/06/2026 at 07:40 AM PDT
# Data Interval: 1 Hour
#
# Most Recent Date & Time of Maximum Observed: 05/06/2026 at 05:00 AM PDT
# Maximum Observed Stage: 3.42 Feet
# Maximum Observed Flow: 662 cfs
#
# Earliest Date & Time of Maximum Forecast: 05/10/2026 at 10:00 PM PDT
# Maximum Forecast Stage: 3.61 Feet
# Maximum Forecast Flow: 790 cfs
#
# OBSERVED
#
# Date & Time (Local) Stage (Feet) Flow (cfs) Trend Observed Status
# ---------------------------------------------------------------------------------
05/01/2026 07 AM PDT 2.88 368 Normal
05/01/2026 08 AM PDT 2.87 363 - Normal
05/01/2026 09 AM PDT 2.87 363 0 Normal
05/01/2026 10 AM PDT 2.87 363 0 Normal
05/01/2026 11 AM PDT 2.87 363 0 Normal
05/01/2026 12 PM PDT 2.87 363 0 Normal
05/01/2026 01 PM PDT 2.86 359 - Normal
05/01/2026 02 PM PDT 2.86 359 0 Normal
05/01/2026 03 PM PDT 2.86 359 0 Normal
05/01/2026 04 PM PDT 2.86 359 0 Normal
05/01/2026 05 PM PDT 2.86 359 0 Normal
05/01/2026 06 PM PDT 2.86 359 0 Normal
05/01/2026 07 PM PDT 2.86 359 0 Normal
05/01/2026 08 PM PDT 2.86 359 0 Normal
05/01/2026 09 PM PDT 2.86 359 0 Normal
05/01/2026 10 PM PDT 2.86 359 0 Normal
05/01/2026 11 PM PDT 2.86 359 0 Normal
05/02/2026 12 AM PDT 2.86 359 0 Normal
05/02/2026 01 AM PDT 2.85 354 - Normal
05/02/2026 02 AM PDT 2.85 354 0 Normal
05/02/2026 03 AM PDT 2.84 350 - Normal
05/02/2026 04 AM PDT 2.84 350 0 Normal
05/02/2026 05 AM PDT 2.83 345 - Normal
05/02/2026 06 AM PDT 2.83 345 0 Normal
05/02/2026 07 AM PDT 2.82 341 - Normal
05/02/2026 08 AM PDT 2.81 337 - Normal
05/02/2026 09 AM PDT 2.81 337 0 Normal
05/02/2026 10 AM PDT 2.80 332 - Normal
05/02/2026 11 AM PDT 2.80 332 0 Normal
05/02/2026 12 PM PDT 2.79 328 - Normal
05/02/2026 01 PM PDT 2.79 328 0 Normal
05/02/2026 02 PM PDT 2.78 324 - Normal
05/02/2026 03 PM PDT 2.78 324 0 Normal
05/02/2026 04 PM PDT 2.78 324 0 Normal
05/02/2026 05 PM PDT 2.78 324 0 Normal
05/02/2026 06 PM PDT 2.78 324 0 Normal
05/02/2026 07 PM PDT 2.78 324 0 Normal
05/02/2026 08 PM PDT 2.78 324 0 Normal
05/02/2026 09 PM PDT 2.78 324 0 Normal
05/02/2026 10 PM PDT 2.78 324 0 Normal
05/02/2026 11 PM PDT 2.78 324 0 Normal
05/03/2026 12 AM PDT 2.79 328 + Normal
05/03/2026 01 AM PDT 2.79 328 0 Normal
05/03/2026 02 AM PDT 2.79 328 0 Normal
05/03/2026 03 AM PDT 2.79 328 0 Normal
05/03/2026 04 AM PDT 2.79 328 0 Normal
05/03/2026 05 AM PDT 2.79 328 0 Normal
05/03/2026 06 AM PDT 2.79 328 0 Normal
05/03/2026 07 AM PDT 2.79 328 0 Normal
05/03/2026 08 AM PDT 2.79 328 0 Normal
05/03/2026 09 AM PDT 2.79 328 0 Normal
05/03/2026 10 AM PDT 2.79 328 0 Normal
05/03/2026 11 AM PDT 2.79 328 0 Normal
05/03/2026 12 PM PDT 2.79 328 0 Normal
05/03/2026 01 PM PDT 2.79 328 0 Normal
05/03/2026 02 PM PDT 2.80 332 + Normal
05/03/2026 03 PM PDT 2.81 337 + Normal
05/03/2026 04 PM PDT 2.82 341 + Normal
05/03/2026 05 PM PDT 2.82 341 0 Normal
05/03/2026 06 PM PDT 2.83 345 + Normal
05/03/2026 07 PM PDT 2.84 350 + Normal
05/03/2026 08 PM PDT 2.85 354 + Normal
05/03/2026 09 PM PDT 2.86 359 + Normal
05/03/2026 10 PM PDT 2.87 363 + Normal
05/03/2026 11 PM PDT 2.88 368 + Normal
05/04/2026 12 AM PDT 2.88 368 0 Normal
05/04/2026 01 AM PDT 2.89 372 + Normal
05/04/2026 02 AM PDT 2.90 377 + Normal
05/04/2026 03 AM PDT 2.91 381 + Normal
05/04/2026 04 AM PDT 2.91 381 0 Normal
05/04/2026 05 AM PDT 2.91 381 0 Normal
05/04/2026 06 AM PDT 2.92 386 + Normal
05/04/2026 07 AM PDT 2.92 386 0 Normal
05/04/2026 08 AM PDT 2.93 391 + Normal
05/04/2026 09 AM PDT 2.94 396 + Normal
05/04/2026 10 AM PDT 2.94 396 0 Normal
05/04/2026 11 AM PDT 2.95 400 + Normal
05/04/2026 12 PM PDT 2.96 405 + Normal
05/04/2026 01 PM PDT 2.98 415 + Normal
05/04/2026 02 PM PDT 2.99 420 + Normal
05/04/2026 03 PM PDT 3.00 425 + Normal
05/04/2026 04 PM PDT 3.00 425 0 Normal
05/04/2026 05 PM PDT 3.01 430 + Normal
05/04/2026 06 PM PDT 3.02 435 + Normal
05/04/2026 07 PM PDT 3.02 435 0 Normal
05/04/2026 08 PM PDT 3.03 440 + Normal
05/04/2026 09 PM PDT 3.04 445 + Normal
05/04/2026 10 PM PDT 3.05 450 + Normal
05/04/2026 11 PM PDT 3.06 455 + Normal
05/05/2026 12 AM PDT 3.07 460 + Normal
05/05/2026 01 AM PDT 3.09 471 + Normal
05/05/2026 02 AM PDT 3.10 476 + Normal
05/05/2026 03 AM PDT 3.12 486 + Normal
05/05/2026 04 AM PDT 3.13 492 + Normal
05/05/2026 05 AM PDT 3.14 497 + Normal
05/05/2026 06 AM PDT 3.16 508 + Normal
05/05/2026 07 AM PDT 3.17 514 + Normal
05/05/2026 08 AM PDT 3.20 530 + Normal
05/05/2026 09 AM PDT 3.22 542 + Normal
05/05/2026 10 AM PDT 3.24 553 + Normal
05/05/2026 11 AM PDT 3.26 565 + Normal
05/05/2026 12 PM PDT 3.28 576 + Normal
05/05/2026 01 PM PDT 3.30 588 + Normal
05/05/2026 02 PM PDT 3.31 594 + Normal
05/05/2026 03 PM PDT 3.32 600 + Normal
05/05/2026 04 PM PDT 3.33 606 + Normal
05/05/2026 05 PM PDT 3.34 612 + Normal
05/05/2026 06 PM PDT 3.35 618 + Normal
05/05/2026 07 PM PDT 3.36 624 + Normal
05/05/2026 08 PM PDT 3.37 631 + Normal
05/05/2026 09 PM PDT 3.37 631 0 Normal
05/05/2026 10 PM PDT 3.38 637 + Normal
05/05/2026 11 PM PDT 3.39 643 + Normal
05/06/2026 12 AM PDT 3.40 649 + Normal
05/06/2026 01 AM PDT 3.41 656 + Normal
05/06/2026 02 AM PDT 3.42 662 + Normal
05/06/2026 03 AM PDT 3.42 662 0 Normal
05/06/2026 04 AM PDT 3.42 662 0 Normal
05/06/2026 05 AM PDT 3.42 662 0 Normal
05/06/2026 06 AM PDT 3.41 656 - Normal
05/06/2026 07 AM PDT 3.41 656 0 Normal
#
# FORECAST
#
# Date & Time (Local) Stage (Feet) Flow (cfs) Trend Forecast Status
# ---------------------------------------------------------------------------------
05/06/2026 08 AM PDT 3.40 649 Normal
05/06/2026 09 AM PDT 3.40 649 0 Normal
05/06/2026 10 AM PDT 3.40 649 0 Normal
05/06/2026 11 AM PDT 3.40 649 0 Normal
05/06/2026 12 PM PDT 3.40 649 0 Normal
05/06/2026 01 PM PDT 3.40 649 0 Normal
05/06/2026 02 PM PDT 3.40 649 0 Normal
05/06/2026 03 PM PDT 3.40 649 0 Normal
05/06/2026 04 PM PDT 3.41 656 + Normal
05/06/2026 05 PM PDT 3.41 656 0 Normal
05/06/2026 06 PM PDT 3.41 656 0 Normal
05/06/2026 07 PM PDT 3.40 649 - Normal
05/06/2026 08 PM PDT 3.40 649 0 Normal
05/06/2026 09 PM PDT 3.40 649 0 Normal
05/06/2026 10 PM PDT 3.39 643 - Normal
05/06/2026 11 PM PDT 3.39 643 0 Normal
05/07/2026 12 AM PDT 3.38 637 - Normal
05/07/2026 01 AM PDT 3.38 637 0 Normal
05/07/2026 02 AM PDT 3.37 631 - Normal
05/07/2026 03 AM PDT 3.36 624 - Normal
05/07/2026 04 AM PDT 3.35 618 - Normal
05/07/2026 05 AM PDT 3.35 618 0 Normal
05/07/2026 06 AM PDT 3.34 612 - Normal
05/07/2026 07 AM PDT 3.33 606 - Normal
05/07/2026 08 AM PDT 3.32 600 - Normal
05/07/2026 09 AM PDT 3.32 600 0 Normal
05/07/2026 10 AM PDT 3.31 594 - Normal
05/07/2026 11 AM PDT 3.31 594 0 Normal
05/07/2026 12 PM PDT 3.32 600 + Normal
05/07/2026 01 PM PDT 3.33 606 + Normal
05/07/2026 02 PM PDT 3.35 618 + Normal
05/07/2026 03 PM PDT 3.37 631 + Normal
05/07/2026 04 PM PDT 3.39 643 + Normal
05/07/2026 05 PM PDT 3.41 656 + Normal
05/07/2026 06 PM PDT 3.43 668 + Normal
05/07/2026 07 PM PDT 3.45 681 + Normal
05/07/2026 08 PM PDT 3.47 694 + Normal
05/07/2026 09 PM PDT 3.48 701 + Normal
05/07/2026 10 PM PDT 3.49 708 + Normal
05/07/2026 11 PM PDT 3.50 714 + Normal
05/08/2026 12 AM PDT 3.50 714 0 Normal
05/08/2026 01 AM PDT 3.51 721 + Normal
05/08/2026 02 AM PDT 3.50 714 - Normal
05/08/2026 03 AM PDT 3.50 714 0 Normal
05/08/2026 04 AM PDT 3.49 708 - Normal
05/08/2026 05 AM PDT 3.48 701 - Normal
05/08/2026 06 AM PDT 3.47 694 - Normal
05/08/2026 07 AM PDT 3.46 688 - Normal
05/08/2026 08 AM PDT 3.44 675 - Normal
05/08/2026 09 AM PDT 3.44 675 0 Normal
05/08/2026 10 AM PDT 3.43 668 - Normal
05/08/2026 11 AM PDT 3.43 668 0 Normal
05/08/2026 12 PM PDT 3.44 675 + Normal
05/08/2026 01 PM PDT 3.44 675 0 Normal
05/08/2026 02 PM PDT 3.45 681 + Normal
05/08/2026 03 PM PDT 3.47 694 + Normal
05/08/2026 04 PM PDT 3.48 701 + Normal
05/08/2026 05 PM PDT 3.50 714 + Normal
05/08/2026 06 PM PDT 3.51 721 + Normal
05/08/2026 07 PM PDT 3.52 728 + Normal
05/08/2026 08 PM PDT 3.54 741 + Normal
05/08/2026 09 PM PDT 3.54 741 0 Normal
05/08/2026 10 PM PDT 3.55 748 + Normal
05/08/2026 11 PM PDT 3.56 755 + Normal
05/09/2026 12 AM PDT 3.56 755 0 Normal
05/09/2026 01 AM PDT 3.56 755 0 Normal
05/09/2026 02 AM PDT 3.56 755 0 Normal
05/09/2026 03 AM PDT 3.55 748 - Normal
05/09/2026 04 AM PDT 3.54 741 - Normal
05/09/2026 05 AM PDT 3.53 734 - Normal
05/09/2026 06 AM PDT 3.51 721 - Normal
05/09/2026 07 AM PDT 3.50 714 - Normal
05/09/2026 08 AM PDT 3.49 708 - Normal
05/09/2026 09 AM PDT 3.48 701 - Normal
05/09/2026 10 AM PDT 3.47 694 - Normal
05/09/2026 11 AM PDT 3.46 688 - Normal
05/09/2026 12 PM PDT 3.46 688 0 Normal
05/09/2026 01 PM PDT 3.46 688 0 Normal
05/09/2026 02 PM PDT 3.47 694 + Normal
05/09/2026 03 PM PDT 3.48 701 + Normal
05/09/2026 04 PM PDT 3.49 708 + Normal
05/09/2026 05 PM PDT 3.50 714 + Normal
05/09/2026 06 PM PDT 3.51 721 + Normal
05/09/2026 07 PM PDT 3.52 728 + Normal
05/09/2026 08 PM PDT 3.54 741 + Normal
05/09/2026 09 PM PDT 3.54 741 0 Normal
05/09/2026 10 PM PDT 3.55 748 + Normal
05/09/2026 11 PM PDT 3.56 755 + Normal
05/10/2026 12 AM PDT 3.56 755 0 Normal
05/10/2026 01 AM PDT 3.56 755 0 Normal
05/10/2026 02 AM PDT 3.56 755 0 Normal
05/10/2026 03 AM PDT 3.55 748 - Normal
05/10/2026 04 AM PDT 3.54 741 - Normal
05/10/2026 05 AM PDT 3.53 734 - Normal
05/10/2026 06 AM PDT 3.52 728 - Normal
05/10/2026 07 AM PDT 3.51 721 - Normal
05/10/2026 08 AM PDT 3.50 714 - Normal
05/10/2026 09 AM PDT 3.49 708 - Normal
05/10/2026 10 AM PDT 3.49 708 0 Normal
05/10/2026 11 AM PDT 3.49 708 0 Normal
05/10/2026 12 PM PDT 3.50 714 + Normal
05/10/2026 01 PM PDT 3.51 721 + Normal
05/10/2026 02 PM PDT 3.52 728 + Normal
05/10/2026 03 PM PDT 3.53 734 + Normal
05/10/2026 04 PM PDT 3.54 741 + Normal
05/10/2026 05 PM PDT 3.56 755 + Normal
05/10/2026 06 PM PDT 3.57 762 + Normal
05/10/2026 07 PM PDT 3.58 769 + Normal
05/10/2026 08 PM PDT 3.59 776 + Normal
05/10/2026 09 PM PDT 3.60 783 + Normal
05/10/2026 10 PM PDT 3.61 790 + Normal
05/10/2026 11 PM PDT 3.61 790 0 Normal
05/11/2026 12 AM PDT 3.61 790 0 Normal
05/11/2026 01 AM PDT 3.61 790 0 Normal
05/11/2026 02 AM PDT 3.61 790 0 Normal
05/11/2026 03 AM PDT 3.60 783 - Normal
05/11/2026 04 AM PDT 3.60 783 0 Normal
05/11/2026 05 AM PDT 3.59 776 - Normal
#
# NOTE 1: Stages are rounded to the nearest hundredth (.01) of a foot.
# NOTE 2: Flows are rounded to the nearest (1) cfs.
# NOTE 3: Trends are determined using hourly change in unrounded stage and flow.
# NOTE 4: Maximum Values are determined using unrounded stage and flow.
|